sensor_id;sensor_type;location;lat;lon;timestamp;pressure;altitude;pressure_sealevel;temperature;humidity
10079;BME280;5078;42.544;22.966;2023-02-14T00:01:34;95322.34;;;-1.92;100.00
10079;BME280;5078;42.544;22.966;2023-02-14T00:04:02;95319.97;;;-1.97;100.00
10079;BME280;5078;42.544;22.966;2023-02-14T00:06:30;95322.06;;;-2.27;100.00
10079;BME280;5078;42.544;22.966;2023-02-14T00:08:59;95315.47;;;-2.14;100.00
10079;BME280;5078;42.544;22.966;2023-02-14T00:11:27;95321.63;;;-2.17;100.00
10079;BME280;5078;42.544;22.966;2023-02-14T00:13:54;95321.19;;;-2.06;100.00
10079;BME280;5078;42.544;22.966;2023-02-14T00:16:39;95323.66;;;-2.03;100.00
10079;BME280;5078;42.544;22.966;2023-02-14T00:19:06;95327.81;;;-1.99;100.00
10079;BME280;5078;42.544;22.966;2023-02-14T00:21:34;95327.56;;;-1.92;100.00
10079;BME280;5078;42.544;22.966;2023-02-14T00:24:01;95311.44;;;-2.21;100.00
10079;BME280;5078;42.544;22.966;2023-02-14T00:26:28;95327.34;;;-2.08;100.00
10079;BME280;5078;42.544;22.966;2023-02-14T00:28:55;95335.84;;;-2.25;100.00
10079;BME280;5078;42.544;22.966;2023-02-14T00:31:22;95333.53;;;-2.11;100.00
10079;BME280;5078;42.544;22.966;2023-02-14T00:33:50;95323.78;;;-2.06;100.00
10079;BME280;5078;42.544;22.966;2023-02-14T00:36:18;95324.72;;;-2.07;100.00
10079;BME280;5078;42.544;22.966;2023-02-14T00:38:45;95286.59;;;-2.49;100.00
10079;BME280;5078;42.544;22.966;2023-02-14T00:41:12;95322.63;;;-1.99;100.00
10079;BME280;5078;42.544;22.966;2023-02-14T00:43:44;95331.72;;;-2.09;100.00
10079;BME280;5078;42.544;22.966;2023-02-14T00:46:11;95282.25;;;-2.70;100.00
10079;BME280;5078;42.544;22.966;2023-02-14T00:48:38;95322.81;;;-2.46;100.00
10079;BME280;5078;42.544;22.966;2023-02-14T00:51:07;95319.84;;;-2.36;100.00
10079;BME280;5078;42.544;22.966;2023-02-14T00:53:34;95316.78;;;-2.68;100.00
10079;BME280;5078;42.544;22.966;2023-02-14T00:56:01;95313.28;;;-2.67;100.00
10079;BME280;5078;42.544;22.966;2023-02-14T00:58:28;95316.25;;;-2.76;100.00
10079;BME280;5078;42.544;22.966;2023-02-14T01:00:55;95319.66;;;-2.98;100.00
10079;BME280;5078;42.544;22.966;2023-02-14T01:06:06;95308.66;;;-3.05;100.00
10079;BME280;5078;42.544;22.966;2023-02-14T01:08:33;95310.41;;;-2.82;100.00
10079;BME280;5078;42.544;22.966;2023-02-14T01:11:06;95303.63;;;-2.86;100.00
10079;BME280;5078;42.544;22.966;2023-02-14T01:13:33;95308.63;;;-3.03;100.00
10079;BME280;5078;42.544;22.966;2023-02-14T01:16:04;95303.22;;;-3.20;100.00
10079;BME280;5078;42.544;22.966;2023-02-14T01:18:32;95308.47;;;-3.22;100.00
10079;BME280;5078;42.544;22.966;2023-02-14T01:21:10;95300.28;;;-3.35;100.00
10079;BME280;5078;42.544;22.966;2023-02-14T01:23:37;95298.53;;;-3.11;100.00
10079;BME280;5078;42.544;22.966;2023-02-14T01:26:04;95268.00;;;-3.26;100.00
10079;BME280;5078;42.544;22.966;2023-02-14T01:28:31;95275.47;;;-3.18;100.00
10079;BME280;5078;42.544;22.966;2023-02-14T01:31:05;95277.25;;;-2.97;100.00
10079;BME280;5078;42.544;22.966;2023-02-14T01:33:31;95272.81;;;-2.95;100.00
10079;BME280;5078;42.544;22.966;2023-02-14T01:35:58;95267.09;;;-3.03;100.00
10079;BME280;5078;42.544;22.966;2023-02-14T01:38:28;95270.13;;;-2.92;100.00
10079;BME280;5078;42.544;22.966;2023-02-14T01:40:54;95260.03;;;-2.77;100.00
10079;BME280;5078;42.544;22.966;2023-02-14T01:43:21;95275.59;;;-2.77;100.00
10079;BME280;5078;42.544;22.966;2023-02-14T01:45:48;95277.00;;;-2.69;100.00
10079;BME280;5078;42.544;22.966;2023-02-14T01:48:15;95279.34;;;-2.63;100.00
10079;BME280;5078;42.544;22.966;2023-02-14T01:50:44;95282.03;;;-2.64;100.00
10079;BME280;5078;42.544;22.966;2023-02-14T01:53:16;95278.75;;;-3.13;100.00
10079;BME280;5078;42.544;22.966;2023-02-14T01:55:49;95272.97;;;-2.98;100.00
10079;BME280;5078;42.544;22.966;2023-02-14T01:58:19;95267.72;;;-2.74;100.00
10079;BME280;5078;42.544;22.966;2023-02-14T02:00:47;95256.00;;;-3.07;100.00
10079;BME280;5078;42.544;22.966;2023-02-14T02:03:27;95259.78;;;-3.15;100.00
10079;BME280;5078;42.544;22.966;2023-02-14T02:05:58;95260.13;;;-3.25;100.00
10079;BME280;5078;42.544;22.966;2023-02-14T02:08:26;95257.00;;;-3.33;100.00
10079;BME280;5078;42.544;22.966;2023-02-14T02:10:55;95258.91;;;-3.38;100.00
10079;BME280;5078;42.544;22.966;2023-02-14T02:13:21;95269.97;;;-3.56;100.00
10079;BME280;5078;42.544;22.966;2023-02-14T02:15:55;95255.44;;;-3.37;100.00
10079;BME280;5078;42.544;22.966;2023-02-14T02:18:34;95263.44;;;-3.19;100.00
10079;BME280;5078;42.544;22.966;2023-02-14T02:21:31;95245.38;;;-3.22;100.00
10079;BME280;5078;42.544;22.966;2023-02-14T02:27:23;95248.28;;;-2.86;100.00
10079;BME280;5078;42.544;22.966;2023-02-14T02:36:35;95258.13;;;-2.94;100.00
10079;BME280;5078;42.544;22.966;2023-02-14T02:39:20;95252.66;;;-3.10;100.00
10079;BME280;5078;42.544;22.966;2023-02-14T02:42:00;95244.59;;;-3.03;100.00
10079;BME280;5078;42.544;22.966;2023-02-14T02:44:38;95235.34;;;-3.10;100.00
10079;BME280;5078;42.544;22.966;2023-02-14T02:47:15;95210.31;;;-2.89;100.00
10079;BME280;5078;42.544;22.966;2023-02-14T02:49:53;95208.03;;;-3.40;100.00
10079;BME280;5078;42.544;22.966;2023-02-14T02:52:42;95219.84;;;-3.33;100.00
10079;BME280;5078;42.544;22.966;2023-02-14T02:55:34;95220.97;;;-3.40;100.00
10079;BME280;5078;42.544;22.966;2023-02-14T02:58:17;95216.13;;;-3.26;100.00
10079;BME280;5078;42.544;22.966;2023-02-14T03:00:46;95223.22;;;-3.31;100.00
10079;BME280;5078;42.544;22.966;2023-02-14T03:03:14;95224.91;;;-3.30;100.00
10079;BME280;5078;42.544;22.966;2023-02-14T03:05:59;95237.84;;;-3.29;100.00
10079;BME280;5078;42.544;22.966;2023-02-14T03:08:27;95235.28;;;-3.30;100.00
10079;BME280;5078;42.544;22.966;2023-02-14T03:10:55;95234.19;;;-3.25;100.00
10079;BME280;5078;42.544;22.966;2023-02-14T03:16:25;95224.75;;;-3.26;100.00
10079;BME280;5078;42.544;22.966;2023-02-14T03:19:30;95206.50;;;-3.46;100.00
10079;BME280;5078;42.544;22.966;2023-02-14T03:22:22;95229.25;;;-3.31;100.00
10079;BME280;5078;42.544;22.966;2023-02-14T03:24:56;95222.94;;;-3.23;100.00
10079;BME280;5078;42.544;22.966;2023-02-14T03:27:32;95206.72;;;-3.52;100.00
10079;BME280;5078;42.544;22.966;2023-02-14T03:30:06;95228.03;;;-3.44;100.00
10079;BME280;5078;42.544;22.966;2023-02-14T03:32:40;95233.47;;;-3.28;100.00
10079;BME280;5078;42.544;22.966;2023-02-14T03:35:12;95194.56;;;-3.50;100.00
10079;BME280;5078;42.544;22.966;2023-02-14T03:37:45;95201.91;;;-3.61;100.00
10079;BME280;5078;42.544;22.966;2023-02-14T03:40:20;95204.72;;;-3.44;100.00
10079;BME280;5078;42.544;22.966;2023-02-14T03:42:52;95197.94;;;-3.48;100.00
10079;BME280;5078;42.544;22.966;2023-02-14T03:45:23;95195.50;;;-3.29;100.00
10079;BME280;5078;42.544;22.966;2023-02-14T03:47:55;95188.59;;;-3.30;100.00
10079;BME280;5078;42.544;22.966;2023-02-14T03:50:24;95191.28;;;-3.32;100.00
10079;BME280;5078;42.544;22.966;2023-02-14T03:52:53;95194.06;;;-3.14;100.00
10079;BME280;5078;42.544;22.966;2023-02-14T03:55:26;95196.91;;;-3.00;100.00
10079;BME280;5078;42.544;22.966;2023-02-14T03:58:02;95188.56;;;-3.29;100.00
10079;BME280;5078;42.544;22.966;2023-02-14T04:00:36;95190.69;;;-3.16;100.00
10079;BME280;5078;42.544;22.966;2023-02-14T04:03:09;95192.09;;;-3.53;100.00
10079;BME280;5078;42.544;22.966;2023-02-14T04:05:38;95193.78;;;-3.52;100.00
10079;BME280;5078;42.544;22.966;2023-02-14T04:08:08;95183.91;;;-3.42;100.00
10079;BME280;5078;42.544;22.966;2023-02-14T04:10:37;95186.19;;;-3.35;100.00
10079;BME280;5078;42.544;22.966;2023-02-14T04:13:07;95192.72;;;-3.47;100.00
10079;BME280;5078;42.544;22.966;2023-02-14T04:15:34;95180.41;;;-3.41;100.00
10079;BME280;5078;42.544;22.966;2023-02-14T04:18:01;95194.53;;;-3.27;100.00
10079;BME280;5078;42.544;22.966;2023-02-14T04:20:46;95188.34;;;-3.68;100.00
10079;BME280;5078;42.544;22.966;2023-02-14T04:23:12;95198.66;;;-3.44;100.00
10079;BME280;5078;42.544;22.966;2023-02-14T04:25:40;95193.31;;;-3.40;100.00
10079;BME280;5078;42.544;22.966;2023-02-14T04:28:08;95183.22;;;-3.48;100.00
10079;BME280;5078;42.544;22.966;2023-02-14T04:30:34;95190.63;;;-3.60;100.00
10079;BME280;5078;42.544;22.966;2023-02-14T04:33:02;95191.75;;;-3.44;100.00
10079;BME280;5078;42.544;22.966;2023-02-14T04:35:29;95179.66;;;-3.45;100.00
10079;BME280;5078;42.544;22.966;2023-02-14T04:37:55;95175.66;;;-3.76;100.00
10079;BME280;5078;42.544;22.966;2023-02-14T04:40:24;95174.03;;;-3.78;100.00
10079;BME280;5078;42.544;22.966;2023-02-14T04:42:52;95179.38;;;-3.83;100.00
10079;BME280;5078;42.544;22.966;2023-02-14T04:45:19;95183.16;;;-3.68;100.00
10079;BME280;5078;42.544;22.966;2023-02-14T04:47:46;95174.31;;;-3.40;100.00
10079;BME280;5078;42.544;22.966;2023-02-14T04:50:13;95175.22;;;-3.63;100.00
10079;BME280;5078;42.544;22.966;2023-02-14T04:52:40;95166.59;;;-3.64;100.00
10079;BME280;5078;42.544;22.966;2023-02-14T04:55:08;95167.56;;;-3.66;100.00
10079;BME280;5078;42.544;22.966;2023-02-14T04:57:35;95172.50;;;-3.60;100.00
10079;BME280;5078;42.544;22.966;2023-02-14T05:00:04;95178.13;;;-3.73;100.00
10079;BME280;5078;42.544;22.966;2023-02-14T05:02:31;95170.38;;;-3.73;100.00
10079;BME280;5078;42.544;22.966;2023-02-14T05:04:58;95168.56;;;-3.71;100.00
10079;BME280;5078;42.544;22.966;2023-02-14T05:07:25;95141.84;;;-3.49;100.00
10079;BME280;5078;42.544;22.966;2023-02-14T05:09:51;95158.53;;;-3.34;100.00
10079;BME280;5078;42.544;22.966;2023-02-14T05:12:18;95161.75;;;-3.07;100.00
10079;BME280;5078;42.544;22.966;2023-02-14T05:14:45;95161.22;;;-3.37;100.00
10079;BME280;5078;42.544;22.966;2023-02-14T05:17:13;95155.13;;;-3.58;100.00
10079;BME280;5078;42.544;22.966;2023-02-14T05:19:40;95158.88;;;-2.99;100.00
10079;BME280;5078;42.544;22.966;2023-02-14T05:22:07;95170.50;;;-3.10;100.00
10079;BME280;5078;42.544;22.966;2023-02-14T05:24:33;95155.19;;;-3.16;100.00
10079;BME280;5078;42.544;22.966;2023-02-14T05:27:00;95166.50;;;-2.74;100.00
10079;BME280;5078;42.544;22.966;2023-02-14T05:29:27;95167.72;;;-2.63;100.00
10079;BME280;5078;42.544;22.966;2023-02-14T05:31:54;95160.66;;;-2.79;100.00
10079;BME280;5078;42.544;22.966;2023-02-14T05:34:22;95124.03;;;-2.73;100.00
10079;BME280;5078;42.544;22.966;2023-02-14T05:36:48;95172.19;;;-2.46;100.00
10079;BME280;5078;42.544;22.966;2023-02-14T05:39:15;95159.50;;;-2.52;100.00
10079;BME280;5078;42.544;22.966;2023-02-14T05:41:42;95160.50;;;-2.35;100.00
10079;BME280;5078;42.544;22.966;2023-02-14T05:44:09;95160.78;;;-2.62;100.00
10079;BME280;5078;42.544;22.966;2023-02-14T05:46:36;95166.88;;;-2.63;100.00
10079;BME280;5078;42.544;22.966;2023-02-14T05:49:03;95169.19;;;-2.98;100.00
10079;BME280;5078;42.544;22.966;2023-02-14T05:51:31;95149.41;;;-3.22;100.00
10079;BME280;5078;42.544;22.966;2023-02-14T05:53:58;95165.13;;;-3.27;100.00
10079;BME280;5078;42.544;22.966;2023-02-14T05:56:25;95164.72;;;-3.16;100.00
10079;BME280;5078;42.544;22.966;2023-02-14T05:58:52;95151.28;;;-3.26;100.00
10079;BME280;5078;42.544;22.966;2023-02-14T06:01:19;95162.16;;;-3.16;100.00
10079;BME280;5078;42.544;22.966;2023-02-14T06:03:50;95167.69;;;-2.83;100.00
10079;BME280;5078;42.544;22.966;2023-02-14T06:06:18;95158.78;;;-2.98;100.00
10079;BME280;5078;42.544;22.966;2023-02-14T06:08:49;95172.66;;;-3.19;100.00
10079;BME280;5078;42.544;22.966;2023-02-14T06:11:16;95174.19;;;-2.93;100.00
10079;BME280;5078;42.544;22.966;2023-02-14T06:13:46;95152.06;;;-3.02;100.00
10079;BME280;5078;42.544;22.966;2023-02-14T06:16:16;95161.75;;;-3.07;100.00
10079;BME280;5078;42.544;22.966;2023-02-14T06:19:01;95157.31;;;-3.26;100.00
10079;BME280;5078;42.544;22.966;2023-02-14T06:21:28;95165.69;;;-2.97;100.00
10079;BME280;5078;42.544;22.966;2023-02-14T06:23:56;95166.72;;;-2.80;100.00
10079;BME280;5078;42.544;22.966;2023-02-14T06:26:23;95168.03;;;-2.70;100.00
10079;BME280;5078;42.544;22.966;2023-02-14T06:28:52;95164.75;;;-2.53;100.00
10079;BME280;5078;42.544;22.966;2023-02-14T06:31:19;95162.00;;;-2.71;100.00
10079;BME280;5078;42.544;22.966;2023-02-14T06:33:46;95172.06;;;-2.43;100.00
10079;BME280;5078;42.544;22.966;2023-02-14T06:36:14;95162.31;;;-2.38;100.00
10079;BME280;5078;42.544;22.966;2023-02-14T06:38:41;95170.97;;;-2.17;100.00
10079;BME280;5078;42.544;22.966;2023-02-14T06:41:10;95180.22;;;-2.72;100.00
10079;BME280;5078;42.544;22.966;2023-02-14T06:43:39;95181.63;;;-2.43;100.00
10079;BME280;5078;42.544;22.966;2023-02-14T06:46:06;95180.69;;;-2.22;100.00
10079;BME280;5078;42.544;22.966;2023-02-14T06:48:32;95166.47;;;-2.33;100.00
10079;BME280;5078;42.544;22.966;2023-02-14T06:50:59;95167.72;;;-2.22;100.00
10079;BME280;5078;42.544;22.966;2023-02-14T06:53:26;95173.34;;;-2.12;100.00
10079;BME280;5078;42.544;22.966;2023-02-14T06:55:54;95177.09;;;-1.99;100.00
10079;BME280;5078;42.544;22.966;2023-02-14T06:58:22;95161.22;;;-1.92;100.00
10079;BME280;5078;42.544;22.966;2023-02-14T07:00:49;95170.22;;;-2.00;100.00
10079;BME280;5078;42.544;22.966;2023-02-14T07:03:15;95167.09;;;-2.08;100.00
10079;BME280;5078;42.544;22.966;2023-02-14T07:05:42;95156.19;;;-1.77;100.00
10079;BME280;5078;42.544;22.966;2023-02-14T07:08:09;95160.88;;;-1.66;100.00
10079;BME280;5078;42.544;22.966;2023-02-14T07:10:36;95149.44;;;-1.62;100.00
10079;BME280;5078;42.544;22.966;2023-02-14T07:13:03;95161.47;;;-1.59;100.00
10079;BME280;5078;42.544;22.966;2023-02-14T07:15:31;95161.53;;;-1.42;100.00
10079;BME280;5078;42.544;22.966;2023-02-14T07:17:58;95156.94;;;-1.56;100.00
10079;BME280;5078;42.544;22.966;2023-02-14T07:20:25;95156.66;;;-1.68;100.00
10079;BME280;5078;42.544;22.966;2023-02-14T07:22:52;95157.09;;;-1.59;100.00
10079;BME280;5078;42.544;22.966;2023-02-14T07:25:20;95140.13;;;-1.29;100.00
10079;BME280;5078;42.544;22.966;2023-02-14T07:27:47;95149.28;;;-1.59;100.00
10079;BME280;5078;42.544;22.966;2023-02-14T07:30:14;95138.19;;;-1.62;100.00
10079;BME280;5078;42.544;22.966;2023-02-14T07:32:42;95157.56;;;-1.50;100.00
10079;BME280;5078;42.544;22.966;2023-02-14T07:35:09;95154.97;;;-1.50;100.00
10079;BME280;5078;42.544;22.966;2023-02-14T07:37:36;95155.19;;;-1.55;100.00
10079;BME280;5078;42.544;22.966;2023-02-14T07:40:03;95150.59;;;-1.50;100.00
10079;BME280;5078;42.544;22.966;2023-02-14T07:42:31;95152.78;;;-1.41;100.00
10079;BME280;5078;42.544;22.966;2023-02-14T07:44:57;95154.00;;;-1.67;100.00
10079;BME280;5078;42.544;22.966;2023-02-14T07:47:24;95108.81;;;-2.02;100.00
10079;BME280;5078;42.544;22.966;2023-02-14T07:49:52;95154.56;;;-1.79;100.00
10079;BME280;5078;42.544;22.966;2023-02-14T07:52:21;95145.50;;;-1.70;100.00
10079;BME280;5078;42.544;22.966;2023-02-14T07:54:48;95149.44;;;-1.62;100.00
10079;BME280;5078;42.544;22.966;2023-02-14T07:57:15;95158.84;;;-1.97;100.00
10079;BME280;5078;42.544;22.966;2023-02-14T07:59:42;95156.53;;;-1.84;100.00
10079;BME280;5078;42.544;22.966;2023-02-14T08:02:09;95155.25;;;-1.76;100.00
10079;BME280;5078;42.544;22.966;2023-02-14T08:04:38;95162.28;;;-1.78;100.00
10079;BME280;5078;42.544;22.966;2023-02-14T08:07:06;95163.06;;;-1.76;100.00
10079;BME280;5078;42.544;22.966;2023-02-14T08:09:32;95166.63;;;-1.78;100.00
10079;BME280;5078;42.544;22.966;2023-02-14T08:11:59;95163.25;;;-1.80;100.00
10079;BME280;5078;42.544;22.966;2023-02-14T08:14:43;95161.38;;;-1.58;100.00
10079;BME280;5078;42.544;22.966;2023-02-14T08:17:10;95166.38;;;-1.53;100.00
10079;BME280;5078;42.544;22.966;2023-02-14T08:19:38;95152.09;;;-1.63;100.00
10079;BME280;5078;42.544;22.966;2023-02-14T08:22:07;95170.22;;;-1.43;100.00
10079;BME280;5078;42.544;22.966;2023-02-14T08:24:33;95166.78;;;-1.62;100.00
10079;BME280;5078;42.544;22.966;2023-02-14T08:27:00;95174.16;;;-1.34;100.00
10079;BME280;5078;42.544;22.966;2023-02-14T08:29:27;95170.47;;;-1.11;100.00
10079;BME280;5078;42.544;22.966;2023-02-14T08:31:53;95163.75;;;-1.34;100.00
10079;BME280;5078;42.544;22.966;2023-02-14T08:34:20;95161.84;;;-1.31;100.00
10079;BME280;5078;42.544;22.966;2023-02-14T08:36:47;95165.47;;;-1.16;100.00
10079;BME280;5078;42.544;22.966;2023-02-14T08:39:15;95160.06;;;-1.11;100.00
10079;BME280;5078;42.544;22.966;2023-02-14T08:41:42;95165.34;;;-0.95;100.00
10079;BME280;5078;42.544;22.966;2023-02-14T08:44:08;95164.09;;;-0.87;100.00
10079;BME280;5078;42.544;22.966;2023-02-14T08:46:35;95166.44;;;-0.99;100.00
10079;BME280;5078;42.544;22.966;2023-02-14T08:49:02;95171.31;;;-1.11;100.00
10079;BME280;5078;42.544;22.966;2023-02-14T08:51:29;95166.34;;;-0.98;100.00
10079;BME280;5078;42.544;22.966;2023-02-14T08:53:55;95158.06;;;-1.06;100.00
10079;BME280;5078;42.544;22.966;2023-02-14T08:56:24;95168.16;;;-0.81;100.00
10079;BME280;5078;42.544;22.966;2023-02-14T08:58:51;95170.53;;;-0.76;100.00
10079;BME280;5078;42.544;22.966;2023-02-14T09:01:18;95168.78;;;-0.58;100.00
10079;BME280;5078;42.544;22.966;2023-02-14T09:03:46;95152.75;;;-0.68;100.00
10079;BME280;5078;42.544;22.966;2023-02-14T09:06:14;95165.88;;;-0.52;100.00
10079;BME280;5078;42.544;22.966;2023-02-14T09:08:42;95173.81;;;-0.38;100.00
10079;BME280;5078;42.544;22.966;2023-02-14T09:11:11;95157.44;;;-0.40;100.00
10079;BME280;5078;42.544;22.966;2023-02-14T09:13:40;95167.97;;;-0.08;100.00
10079;BME280;5078;42.544;22.966;2023-02-14T09:16:09;95174.25;;;0.05;100.00
10079;BME280;5078;42.544;22.966;2023-02-14T09:18:36;95167.09;;;0.09;100.00
10079;BME280;5078;42.544;22.966;2023-02-14T09:21:06;95156.69;;;-0.09;100.00
10079;BME280;5078;42.544;22.966;2023-02-14T09:23:33;95161.91;;;-0.09;100.00
10079;BME280;5078;42.544;22.966;2023-02-14T09:26:00;95151.41;;;-0.07;100.00
10079;BME280;5078;42.544;22.966;2023-02-14T09:28:28;95166.88;;;-0.37;100.00
10079;BME280;5078;42.544;22.966;2023-02-14T09:30:56;95152.69;;;-0.32;100.00
10079;BME280;5078;42.544;22.966;2023-02-14T09:33:24;95136.13;;;-0.66;100.00
10079;BME280;5078;42.544;22.966;2023-02-14T09:35:52;95149.53;;;-0.73;100.00
10079;BME280;5078;42.544;22.966;2023-02-14T09:38:18;95144.72;;;-0.63;100.00
10079;BME280;5078;42.544;22.966;2023-02-14T09:40:46;95135.22;;;-0.64;100.00
10079;BME280;5078;42.544;22.966;2023-02-14T09:43:20;95138.91;;;-0.51;100.00
10079;BME280;5078;42.544;22.966;2023-02-14T09:45:52;95149.75;;;-0.43;100.00
10079;BME280;5078;42.544;22.966;2023-02-14T09:48:24;95137.44;;;-0.39;100.00
10079;BME280;5078;42.544;22.966;2023-02-14T09:50:57;95141.91;;;-0.08;100.00
10079;BME280;5078;42.544;22.966;2023-02-14T09:53:27;95135.88;;;0.07;100.00
10079;BME280;5078;42.544;22.966;2023-02-14T09:56:03;95130.28;;;0.31;100.00
10079;BME280;5078;42.544;22.966;2023-02-14T09:58:35;95127.78;;;-0.04;100.00
10079;BME280;5078;42.544;22.966;2023-02-14T10:01:13;95124.25;;;-0.03;100.00
10079;BME280;5078;42.544;22.966;2023-02-14T10:03:55;95123.97;;;0.19;100.00
10079;BME280;5078;42.544;22.966;2023-02-14T10:06:39;95123.81;;;0.38;100.00
10079;BME280;5078;42.544;22.966;2023-02-14T10:09:17;95121.59;;;0.14;100.00
10079;BME280;5078;42.544;22.966;2023-02-14T10:11:48;95114.28;;;0.05;100.00
10079;BME280;5078;42.544;22.966;2023-02-14T10:14:17;95109.50;;;0.29;100.00
10079;BME280;5078;42.544;22.966;2023-02-14T10:16:48;95112.94;;;0.30;100.00
10079;BME280;5078;42.544;22.966;2023-02-14T10:19:21;95104.03;;;0.34;100.00
10079;BME280;5078;42.544;22.966;2023-02-14T10:21:52;95088.38;;;0.34;100.00
10079;BME280;5078;42.544;22.966;2023-02-14T10:24:23;95097.91;;;0.51;100.00
10079;BME280;5078;42.544;22.966;2023-02-14T10:26:52;95098.72;;;0.51;100.00
10079;BME280;5078;42.544;22.966;2023-02-14T10:29:22;95094.03;;;0.58;100.00
10079;BME280;5078;42.544;22.966;2023-02-14T10:31:51;95088.13;;;0.70;100.00
10079;BME280;5078;42.544;22.966;2023-02-14T10:34:27;95095.44;;;0.63;100.00
10079;BME280;5078;42.544;22.966;2023-02-14T10:37:04;95098.28;;;0.75;100.00
10079;BME280;5078;42.544;22.966;2023-02-14T10:39:49;95089.06;;;0.99;100.00
10079;BME280;5078;42.544;22.966;2023-02-14T10:42:24;95099.06;;;1.07;100.00
10079;BME280;5078;42.544;22.966;2023-02-14T10:45:04;95084.28;;;0.92;100.00
10079;BME280;5078;42.544;22.966;2023-02-14T10:47:44;95104.47;;;1.04;100.00
10079;BME280;5078;42.544;22.966;2023-02-14T10:50:18;95091.03;;;0.96;100.00
10079;BME280;5078;42.544;22.966;2023-02-14T10:52:55;95092.63;;;0.98;100.00
10079;BME280;5078;42.544;22.966;2023-02-14T10:55:34;95091.09;;;0.94;100.00
10079;BME280;5078;42.544;22.966;2023-02-14T10:58:06;95089.97;;;1.14;100.00
10079;BME280;5078;42.544;22.966;2023-02-14T11:00:38;95069.16;;;1.13;100.00
10079;BME280;5078;42.544;22.966;2023-02-14T11:03:08;95086.50;;;1.14;100.00
10079;BME280;5078;42.544;22.966;2023-02-14T11:05:39;95094.34;;;1.14;100.00
10079;BME280;5078;42.544;22.966;2023-02-14T11:08:16;95093.72;;;0.94;100.00
10079;BME280;5078;42.544;22.966;2023-02-14T11:10:45;95090.53;;;0.89;100.00
10079;BME280;5078;42.544;22.966;2023-02-14T11:13:33;95083.06;;;0.83;100.00
10079;BME280;5078;42.544;22.966;2023-02-14T11:16:02;95076.94;;;0.98;100.00
10079;BME280;5078;42.544;22.966;2023-02-14T11:18:31;95072.69;;;1.12;100.00
10079;BME280;5078;42.544;22.966;2023-02-14T11:21:07;95070.69;;;1.31;100.00
10079;BME280;5078;42.544;22.966;2023-02-14T11:23:36;95064.00;;;1.41;100.00
10079;BME280;5078;42.544;22.966;2023-02-14T11:26:08;95059.56;;;1.58;100.00
10079;BME280;5078;42.544;22.966;2023-02-14T11:28:37;95062.44;;;1.53;100.00
10079;BME280;5078;42.544;22.966;2023-02-14T11:31:11;95059.34;;;1.61;100.00
10079;BME280;5078;42.544;22.966;2023-02-14T11:33:39;95056.75;;;1.61;100.00
10079;BME280;5078;42.544;22.966;2023-02-14T11:36:12;95058.25;;;1.79;100.00
10079;BME280;5078;42.544;22.966;2023-02-14T11:38:42;95060.38;;;1.87;100.00
10079;BME280;5078;42.544;22.966;2023-02-14T11:41:12;95052.47;;;1.88;100.00
10079;BME280;5078;42.544;22.966;2023-02-14T11:43:41;95051.06;;;1.83;100.00
10079;BME280;5078;42.544;22.966;2023-02-14T11:46:25;95048.16;;;2.02;100.00
10079;BME280;5078;42.544;22.966;2023-02-14T11:48:55;95050.28;;;2.09;100.00
10079;BME280;5078;42.544;22.966;2023-02-14T11:51:48;95042.75;;;1.90;100.00
10079;BME280;5078;42.544;22.966;2023-02-14T11:54:49;95038.16;;;2.08;100.00
10079;BME280;5078;42.544;22.966;2023-02-14T11:57:23;95037.66;;;2.30;100.00
10079;BME280;5078;42.544;22.966;2023-02-14T11:59:54;95037.00;;;2.27;100.00
10079;BME280;5078;42.544;22.966;2023-02-14T12:02:28;95023.56;;;2.19;100.00
10079;BME280;5078;42.544;22.966;2023-02-14T12:04:58;95037.16;;;2.38;100.00
10079;BME280;5078;42.544;22.966;2023-02-14T12:07:29;95016.78;;;2.43;100.00
10079;BME280;5078;42.544;22.966;2023-02-14T12:10:18;95036.34;;;2.65;100.00
10079;BME280;5078;42.544;22.966;2023-02-14T12:12:55;95023.88;;;2.68;100.00
10079;BME280;5078;42.544;22.966;2023-02-14T12:15:27;95020.53;;;2.66;100.00
10079;BME280;5078;42.544;22.966;2023-02-14T12:17:59;95018.75;;;2.67;100.00
10079;BME280;5078;42.544;22.966;2023-02-14T12:20:37;95029.28;;;2.52;100.00
10079;BME280;5078;42.544;22.966;2023-02-14T12:23:14;95026.34;;;2.57;100.00
10079;BME280;5078;42.544;22.966;2023-02-14T12:25:47;95023.78;;;2.43;100.00
10079;BME280;5078;42.544;22.966;2023-02-14T12:28:20;95014.66;;;2.63;100.00
10079;BME280;5078;42.544;22.966;2023-02-14T12:30:48;95012.41;;;2.56;100.00
10079;BME280;5078;42.544;22.966;2023-02-14T12:33:18;95005.31;;;2.58;100.00
10079;BME280;5078;42.544;22.966;2023-02-14T12:35:53;95004.31;;;2.74;100.00
10079;BME280;5078;42.544;22.966;2023-02-14T12:38:34;95004.75;;;2.80;100.00
10079;BME280;5078;42.544;22.966;2023-02-14T12:41:15;94994.25;;;2.68;100.00
10079;BME280;5078;42.544;22.966;2023-02-14T12:43:47;94997.00;;;2.79;100.00
10079;BME280;5078;42.544;22.966;2023-02-14T12:46:23;94989.88;;;2.81;100.00
10079;BME280;5078;42.544;22.966;2023-02-14T12:49:12;94988.97;;;2.95;100.00
10079;BME280;5078;42.544;22.966;2023-02-14T12:51:51;94981.47;;;2.63;100.00
10079;BME280;5078;42.544;22.966;2023-02-14T12:54:34;94985.13;;;2.61;100.00
10079;BME280;5078;42.544;22.966;2023-02-14T12:57:17;94982.09;;;2.67;100.00
10079;BME280;5078;42.544;22.966;2023-02-14T12:59:55;94983.53;;;2.58;100.00
10079;BME280;5078;42.544;22.966;2023-02-14T13:02:54;94976.81;;;2.54;100.00
10079;BME280;5078;42.544;22.966;2023-02-14T13:05:33;94963.31;;;2.47;100.00
10079;BME280;5078;42.544;22.966;2023-02-14T13:08:18;94982.41;;;2.35;100.00
10079;BME280;5078;42.544;22.966;2023-02-14T13:10:53;94981.59;;;2.20;100.00
10079;BME280;5078;42.544;22.966;2023-02-14T13:13:29;94987.00;;;2.17;100.00
10079;BME280;5078;42.544;22.966;2023-02-14T13:16:06;94983.44;;;2.32;100.00
10079;BME280;5078;42.544;22.966;2023-02-14T13:18:45;94979.25;;;2.30;100.00
10079;BME280;5078;42.544;22.966;2023-02-14T13:21:16;94981.75;;;2.31;100.00
10079;BME280;5078;42.544;22.966;2023-02-14T13:23:46;94977.25;;;2.33;100.00
10079;BME280;5078;42.544;22.966;2023-02-14T13:26:18;94975.63;;;2.18;100.00
10079;BME280;5078;42.544;22.966;2023-02-14T13:28:49;94968.09;;;1.99;100.00